createdAt,value
2022-12-20T00:00:56.308Z,2.70
2022-12-20T00:03:25.351Z,2.53
2022-12-20T00:05:53.035Z,2.50
2022-12-20T00:08:20.774Z,2.45
2022-12-20T00:10:48.411Z,2.70
2022-12-20T00:13:16.071Z,2.65
2022-12-20T00:15:43.816Z,2.33
2022-12-20T00:18:11.532Z,3.30
2022-12-20T00:20:40.594Z,3.10
2022-12-20T00:23:08.228Z,2.80
2022-12-20T00:25:35.880Z,2.97
2022-12-20T00:28:04.539Z,3.63
2022-12-20T00:30:32.168Z,3.08
2022-12-20T00:32:59.921Z,2.83
2022-12-20T00:35:27.831Z,3.35
2022-12-20T00:37:56.933Z,2.45
2022-12-20T00:40:24.572Z,3.65
2022-12-20T00:42:52.226Z,3.10
2022-12-20T00:45:19.869Z,2.70
2022-12-20T00:47:47.526Z,2.33
2022-12-20T00:50:15.259Z,3.03
2022-12-20T00:52:43.020Z,2.80
2022-12-20T00:55:12.150Z,2.70
2022-12-20T00:57:40.162Z,3.25
2022-12-20T01:00:08.345Z,3.30
2022-12-20T01:02:36.101Z,3.40
2022-12-20T01:05:03.997Z,2.80
2022-12-20T01:07:31.629Z,3.20
2022-12-20T01:09:59.617Z,2.83
2022-12-20T01:12:28.664Z,2.78
2022-12-20T01:14:56.291Z,2.45
2022-12-20T01:17:24.056Z,2.78
2022-12-20T01:19:51.706Z,2.35
2022-12-20T01:22:19.336Z,3.08
2022-12-20T01:24:46.951Z,2.92
2022-12-20T01:27:14.590Z,3.22
2022-12-20T01:29:43.556Z,2.10
2022-12-20T01:32:11.346Z,2.80
2022-12-20T01:34:39.108Z,2.78
2022-12-20T01:37:07.160Z,2.70
2022-12-20T01:39:34.903Z,2.78
2022-12-20T01:42:02.657Z,2.70
2022-12-20T01:44:47.981Z,2.80
2022-12-20T01:47:17.008Z,2.28
2022-12-20T01:49:47.719Z,2.42
2022-12-20T01:52:17.454Z,2.97
2022-12-20T01:54:47.677Z,2.30
2022-12-20T01:57:17.333Z,2.90
2022-12-20T01:59:46.205Z,2.88
2022-12-20T02:02:14.854Z,2.70
2022-12-20T02:04:43.942Z,2.90
2022-12-20T02:07:14.005Z,2.58
2022-12-20T02:09:41.757Z,2.88
2022-12-20T02:12:11.934Z,2.40
2022-12-20T02:14:51.316Z,2.63
2022-12-20T02:17:23.829Z,2.50
2022-12-20T02:20:09.977Z,2.47
2022-12-20T02:22:47.307Z,2.30
2022-12-20T02:25:20.483Z,2.55
2022-12-20T02:27:55.476Z,2.28
2022-12-20T02:30:26.333Z,1.98
2022-12-20T02:32:56.842Z,2.60
2022-12-20T02:35:25.971Z,2.78
2022-12-20T02:37:54.820Z,2.10
2022-12-20T02:40:25.162Z,2.92
2022-12-20T02:42:54.842Z,2.28
2022-12-20T02:45:25.080Z,1.88
2022-12-20T02:47:55.466Z,2.17
2022-12-20T02:50:24.749Z,2.53
2022-12-20T02:52:53.178Z,2.30
2022-12-20T02:55:21.557Z,2.38
2022-12-20T02:57:57.870Z,2.40
2022-12-20T03:00:33.311Z,1.90
2022-12-20T03:03:19.194Z,1.98
2022-12-20T03:05:47.939Z,2.45
2022-12-20T03:08:15.961Z,2.22
2022-12-20T03:10:44.123Z,2.00
2022-12-20T03:13:11.825Z,1.92
2022-12-20T03:15:40.808Z,2.67
2022-12-20T03:18:08.566Z,2.33
2022-12-20T03:20:36.963Z,2.17
2022-12-20T03:23:04.746Z,2.78
2022-12-20T03:25:32.703Z,2.20
2022-12-20T03:28:00.328Z,2.13
2022-12-20T03:30:28.116Z,2.83
2022-12-20T03:32:57.388Z,2.08
2022-12-20T03:35:25.295Z,2.30
2022-12-20T03:37:52.911Z,2.58
2022-12-20T03:40:20.787Z,2.42
2022-12-20T03:42:48.454Z,2.47
2022-12-20T03:45:16.189Z,2.45
2022-12-20T03:47:44.023Z,2.30
2022-12-20T03:50:13.771Z,2.60
2022-12-20T03:52:41.571Z,2.88
2022-12-20T03:55:12.551Z,2.60
2022-12-20T03:57:42.429Z,2.13
2022-12-20T04:00:12.687Z,2.20
2022-12-20T04:02:40.528Z,2.13
2022-12-20T04:05:08.759Z,2.28
2022-12-20T04:07:37.911Z,2.63
2022-12-20T04:10:06.034Z,2.60
2022-12-20T04:12:33.752Z,2.03
2022-12-20T04:15:01.405Z,1.95
2022-12-20T04:17:29.073Z,2.13
2022-12-20T04:19:56.801Z,2.38
2022-12-20T04:22:24.467Z,2.30
2022-12-20T04:24:53.637Z,2.28
2022-12-20T04:27:21.309Z,1.88
2022-12-20T04:29:49.039Z,1.98
2022-12-20T04:32:16.733Z,2.15
2022-12-20T04:34:47.121Z,1.92
2022-12-20T04:37:14.886Z,2.30
2022-12-20T04:39:42.548Z,1.77
2022-12-20T04:42:11.629Z,1.98
2022-12-20T04:44:39.382Z,1.42
2022-12-20T04:47:07.129Z,1.90
2022-12-20T04:49:34.814Z,2.58
2022-12-20T04:52:22.578Z,1.88
2022-12-20T04:54:49.387Z,2.20
2022-12-20T04:57:19.508Z,1.88
2022-12-20T04:59:47.145Z,2.00
2022-12-20T05:02:14.917Z,2.13
2022-12-20T05:04:43.307Z,2.08
2022-12-20T05:07:10.973Z,2.65
2022-12-20T05:09:38.795Z,1.92
2022-12-20T05:12:06.606Z,1.90
2022-12-20T05:14:35.622Z,2.08
2022-12-20T05:17:03.374Z,1.73
2022-12-20T05:19:31.164Z,1.95
2022-12-20T05:22:16.402Z,1.73
2022-12-20T05:25:01.280Z,2.22
2022-12-20T05:27:28.973Z,1.63
2022-12-20T05:29:58.132Z,1.70
2022-12-20T05:32:28.230Z,1.70
2022-12-20T05:34:55.981Z,1.80
2022-12-20T05:37:23.634Z,1.85
2022-12-20T05:39:51.297Z,1.83
2022-12-20T05:42:19.357Z,1.88
2022-12-20T05:44:47.051Z,2.10
2022-12-20T05:47:16.092Z,1.88
2022-12-20T05:49:43.907Z,1.30
2022-12-20T05:52:11.775Z,1.65
2022-12-20T05:54:39.416Z,1.65
2022-12-20T05:57:07.265Z,1.35
2022-12-20T05:59:35.224Z,1.70
2022-12-20T06:02:03.175Z,1.63
2022-12-20T06:04:33.879Z,1.77
2022-12-20T06:07:01.751Z,2.03
2022-12-20T06:09:30.139Z,2.22
2022-12-20T06:11:57.992Z,1.45
2022-12-20T06:14:25.674Z,1.42
2022-12-20T06:16:53.779Z,1.25
2022-12-20T06:19:21.976Z,1.10
2022-12-20T06:21:51.368Z,1.52
2022-12-20T06:24:19.014Z,1.75
2022-12-20T06:26:49.159Z,1.13
2022-12-20T06:29:18.490Z,1.67
2022-12-20T06:31:46.237Z,1.48
2022-12-20T06:34:14.144Z,1.50
2022-12-20T06:36:41.943Z,1.60
2022-12-20T06:39:11.177Z,1.65
2022-12-20T06:41:38.927Z,2.13
2022-12-20T06:44:06.801Z,1.67
2022-12-20T06:46:34.932Z,1.42
2022-12-20T06:49:02.614Z,1.52
2022-12-20T06:51:30.303Z,1.63
2022-12-20T06:53:57.949Z,1.67
2022-12-20T06:56:26.985Z,1.40
2022-12-20T06:58:54.691Z,1.80
2022-12-20T07:01:22.576Z,1.42
2022-12-20T07:03:50.665Z,1.25
2022-12-20T07:06:18.380Z,1.23
2022-12-20T07:08:46.135Z,1.52
2022-12-20T07:11:13.811Z,2.10
2022-12-20T07:13:42.868Z,1.40
2022-12-20T07:16:11.274Z,1.90
2022-12-20T07:18:38.994Z,1.52
2022-12-20T07:21:06.937Z,2.70
2022-12-20T07:23:37.314Z,1.92
2022-12-20T07:26:05.153Z,1.80
2022-12-20T07:28:32.876Z,1.30
2022-12-20T07:31:03.242Z,2.38
2022-12-20T07:33:30.989Z,2.42
2022-12-20T07:36:01.321Z,2.25
2022-12-20T07:38:29.166Z,2.40
2022-12-20T07:40:57.562Z,1.70
2022-12-20T07:43:25.352Z,1.85
2022-12-20T07:45:55.590Z,2.03
2022-12-20T07:48:24.825Z,1.92
2022-12-20T07:50:53.218Z,1.98
2022-12-20T07:53:21.581Z,2.05
2022-12-20T07:55:50.400Z,1.92
2022-12-20T07:58:20.025Z,2.13
2022-12-20T08:00:47.895Z,1.48
2022-12-20T08:03:17.965Z,2.35
2022-12-20T08:05:48.507Z,1.65
2022-12-20T08:08:16.795Z,2.00
2022-12-20T08:10:44.755Z,2.00
2022-12-20T08:13:12.444Z,2.00
2022-12-20T08:15:40.164Z,2.15
2022-12-20T08:18:07.831Z,1.77
2022-12-20T08:20:35.662Z,2.10
2022-12-20T08:23:05.393Z,1.98
2022-12-20T08:25:39.230Z,1.55
2022-12-20T08:28:09.332Z,2.30
2022-12-20T08:30:37.047Z,2.20
2022-12-20T08:33:05.601Z,2.22
2022-12-20T08:35:33.247Z,2.20
2022-12-20T08:38:00.970Z,2.17
2022-12-20T08:40:30.099Z,1.77
2022-12-20T08:42:57.751Z,2.10
2022-12-20T08:45:25.474Z,1.90
2022-12-20T08:47:54.490Z,2.35
2022-12-20T08:50:22.139Z,3.13
2022-12-20T08:52:49.901Z,1.58
2022-12-20T08:55:20.019Z,1.85
2022-12-20T08:57:51.105Z,2.38
2022-12-20T09:00:18.951Z,2.63
2022-12-20T09:02:48.343Z,1.83
2022-12-20T09:05:16.173Z,2.03
2022-12-20T09:07:43.937Z,2.25
2022-12-20T09:10:13.182Z,2.35
2022-12-20T09:12:40.850Z,2.95
2022-12-20T09:15:10.915Z,2.47
2022-12-20T09:17:38.684Z,2.22
2022-12-20T09:20:06.982Z,2.10
2022-12-20T09:22:34.606Z,2.33
2022-12-20T09:25:02.245Z,2.58
2022-12-20T09:27:29.994Z,2.58
2022-12-20T09:29:57.825Z,2.60
2022-12-20T09:32:26.985Z,2.20
2022-12-20T09:34:54.687Z,2.28
2022-12-20T09:37:22.363Z,2.88
2022-12-20T09:39:51.324Z,2.33
2022-12-20T09:42:20.284Z,2.20
2022-12-20T09:44:48.253Z,2.17
2022-12-20T09:47:17.130Z,2.17
2022-12-20T09:49:47.731Z,2.25
2022-12-20T09:52:24.878Z,3.00
2022-12-20T09:54:58.219Z,2.40
2022-12-20T09:57:31.563Z,2.60
2022-12-20T09:59:59.354Z,2.20
2022-12-20T10:02:55.700Z,2.70
2022-12-20T10:05:17.722Z,2.50
2022-12-20T10:07:50.316Z,2.97
2022-12-20T10:10:28.082Z,2.72
2022-12-20T10:13:02.136Z,3.28
2022-12-20T10:15:33.366Z,2.40
2022-12-20T10:18:10.878Z,3.00
2022-12-20T10:20:47.088Z,2.97
2022-12-20T10:23:27.918Z,2.58
2022-12-20T10:26:00.393Z,2.95
2022-12-20T10:28:30.572Z,3.42
2022-12-20T10:31:00.396Z,3.03
2022-12-20T10:33:28.679Z,3.08
2022-12-20T10:35:57.723Z,2.47
2022-12-20T10:38:26.041Z,3.33
2022-12-20T10:43:51.144Z,3.33
2022-12-20T10:46:18.940Z,2.92
2022-12-20T10:48:47.463Z,3.70
2022-12-20T10:51:17.390Z,3.28
2022-12-20T10:53:52.205Z,3.22
2022-12-20T10:56:21.818Z,3.75
2022-12-20T10:58:59.399Z,3.50
2022-12-20T11:01:29.591Z,3.15
2022-12-20T11:03:59.291Z,3.63
2022-12-20T11:06:30.821Z,2.60
2022-12-20T11:09:16.390Z,3.20
2022-12-20T11:11:57.919Z,2.60
2022-12-20T11:14:25.602Z,3.25
2022-12-20T11:16:54.263Z,2.88
2022-12-20T11:19:32.336Z,3.10
2022-12-20T11:22:04.729Z,3.10
2022-12-20T11:24:34.784Z,3.05
2022-12-20T11:27:15.447Z,2.92
2022-12-20T11:29:49.408Z,2.60
2022-12-20T11:32:23.384Z,2.97
2022-12-20T11:34:56.478Z,3.25
2022-12-20T11:37:26.829Z,3.25
2022-12-20T11:40:07.279Z,3.03
2022-12-20T11:42:43.831Z,2.63
2022-12-20T11:45:13.951Z,2.42
2022-12-20T11:47:53.463Z,3.58
2022-12-20T11:50:42.197Z,3.13
2022-12-20T11:53:14.442Z,2.85
2022-12-20T11:55:43.098Z,3.13
2022-12-20T11:58:19.461Z,2.67
2022-12-20T12:00:51.603Z,3.00
2022-12-20T12:03:22.768Z,2.75
2022-12-20T12:05:54.483Z,3.00
2022-12-20T12:08:25.636Z,3.88
2022-12-20T12:10:57.504Z,3.13
2022-12-20T12:13:27.454Z,3.00
2022-12-20T12:15:56.402Z,2.88
2022-12-20T12:18:26.156Z,2.90
2022-12-20T12:21:03.545Z,2.55
2022-12-20T12:23:38.399Z,2.22
2022-12-20T12:26:08.394Z,2.72
2022-12-20T12:28:37.364Z,2.78
2022-12-20T12:31:07.065Z,2.72
2022-12-20T12:33:38.960Z,3.05
2022-12-20T12:36:20.858Z,2.75
2022-12-20T12:39:21.504Z,2.85
2022-12-20T12:42:03.986Z,2.95
2022-12-20T12:44:44.748Z,2.78
2022-12-20T12:47:15.833Z,2.85
2022-12-20T12:49:45.063Z,2.72
2022-12-20T12:52:32.183Z,2.85
2022-12-20T12:55:03.136Z,2.60
2022-12-20T12:57:30.831Z,3.00
2022-12-20T12:59:59.828Z,3.00
2022-12-20T13:02:49.880Z,2.83
2022-12-20T13:05:36.530Z,3.13
2022-12-20T13:08:04.890Z,3.25
2022-12-20T13:10:59.422Z,3.58
2022-12-20T13:13:27.189Z,2.45
2022-12-20T13:16:11.433Z,3.25
2022-12-20T13:18:39.187Z,3.92
2022-12-20T13:21:25.613Z,3.22
2022-12-20T13:24:20.935Z,3.63
2022-12-20T13:26:53.309Z,3.27
2022-12-20T13:29:28.071Z,4.10
2022-12-20T13:31:58.346Z,3.70
2022-12-20T13:34:39.310Z,4.18
2022-12-20T13:37:21.850Z,3.25
2022-12-20T13:39:49.601Z,3.63
2022-12-20T13:42:34.047Z,3.40
2022-12-20T13:45:03.831Z,3.08
2022-12-20T13:47:36.255Z,4.05
2022-12-20T13:50:19.874Z,3.67
2022-12-20T13:52:47.644Z,3.55
2022-12-20T13:55:18.775Z,3.83
2022-12-20T13:57:47.043Z,3.15
2022-12-20T14:00:16.960Z,3.67
2022-12-20T14:02:46.312Z,3.60
2022-12-20T14:05:16.855Z,3.67
2022-12-20T14:07:44.874Z,4.35
2022-12-20T14:10:18.727Z,3.92
2022-12-20T14:12:47.314Z,3.50
2022-12-20T14:15:24.899Z,3.95
2022-12-20T14:17:53.949Z,4.88
2022-12-20T14:20:24.364Z,4.10
2022-12-20T14:22:59.224Z,4.18
2022-12-20T14:25:32.049Z,4.22
2022-12-20T14:28:00.186Z,4.18
2022-12-20T14:30:29.964Z,4.38
2022-12-20T14:32:59.201Z,4.50
2022-12-20T14:35:27.116Z,4.13
2022-12-20T14:37:56.314Z,4.70
2022-12-20T14:40:24.017Z,4.63
2022-12-20T14:42:51.964Z,4.43
2022-12-20T14:45:21.433Z,5.03
2022-12-20T14:47:50.540Z,4.47
2022-12-20T14:50:20.835Z,4.30
2022-12-20T14:52:48.574Z,4.30
2022-12-20T14:55:17.898Z,3.88
2022-12-20T14:57:46.902Z,3.50
2022-12-20T15:00:17.149Z,3.90
2022-12-20T15:02:48.212Z,3.80
2022-12-20T15:05:34.625Z,3.67
2022-12-20T15:08:12.518Z,4.45
2022-12-20T15:10:42.344Z,4.57
2022-12-20T15:13:14.667Z,3.78
2022-12-20T15:15:42.697Z,4.10
2022-12-20T15:18:12.754Z,3.72
2022-12-20T15:20:40.937Z,4.53
2022-12-20T15:23:14.662Z,4.80
2022-12-20T15:25:43.970Z,4.53
2022-12-20T15:28:16.878Z,4.55
2022-12-20T15:30:46.171Z,4.38
2022-12-20T15:33:18.410Z,4.95
2022-12-20T15:35:46.197Z,5.15
2022-12-20T15:38:25.431Z,4.18
2022-12-20T15:41:04.967Z,5.10
2022-12-20T15:43:38.808Z,4.50
2022-12-20T15:46:07.319Z,5.25
2022-12-20T15:48:35.294Z,5.47
2022-12-20T15:51:04.185Z,5.43
2022-12-20T15:53:34.403Z,4.93
2022-12-20T15:56:02.094Z,5.40
2022-12-20T15:58:29.769Z,5.80
2022-12-20T16:01:00.237Z,5.18
2022-12-20T16:03:30.668Z,6.07
2022-12-20T16:05:58.776Z,5.63
2022-12-20T16:08:26.452Z,5.53
2022-12-20T16:10:55.501Z,5.07
2022-12-20T16:13:24.580Z,6.00
2022-12-20T16:15:52.431Z,4.85
2022-12-20T16:18:20.205Z,4.95
2022-12-20T16:20:48.029Z,5.47
2022-12-20T16:23:18.049Z,6.85
2022-12-20T16:25:45.852Z,5.55
2022-12-20T16:28:14.989Z,6.32
2022-12-20T16:30:45.342Z,5.43
2022-12-20T16:33:21.024Z,5.78
2022-12-20T16:35:48.696Z,5.82
2022-12-20T16:38:16.417Z,5.57
2022-12-20T16:40:44.072Z,6.60
2022-12-20T16:43:18.299Z,5.90
2022-12-20T16:45:45.976Z,6.03
2022-12-20T16:48:13.728Z,7.68
2022-12-20T16:50:43.502Z,6.63
2022-12-20T16:53:13.354Z,7.10
2022-12-20T16:55:41.246Z,7.03
2022-12-20T16:58:08.945Z,8.13
2022-12-20T17:00:38.382Z,7.68
2022-12-20T17:03:07.002Z,7.50
2022-12-20T17:05:36.401Z,7.78
2022-12-20T17:08:04.468Z,7.90
2022-12-20T17:10:32.179Z,7.25
2022-12-20T17:13:00.073Z,6.28
2022-12-20T17:15:29.457Z,6.38
2022-12-20T17:17:58.866Z,7.78
2022-12-20T17:20:26.580Z,6.45
2022-12-20T17:22:55.626Z,7.65
2022-12-20T17:25:27.560Z,7.05
2022-12-20T17:27:55.728Z,7.22
2022-12-20T17:30:23.931Z,6.90
2022-12-20T17:32:51.938Z,6.22
2022-12-20T17:35:28.717Z,7.53
2022-12-20T17:37:57.737Z,6.95
2022-12-20T17:40:26.579Z,6.60
2022-12-20T17:42:54.553Z,6.68
2022-12-20T17:45:24.209Z,5.97
2022-12-20T17:47:52.196Z,6.85
2022-12-20T17:50:19.868Z,6.72
2022-12-20T17:52:48.920Z,6.53
2022-12-20T17:55:21.606Z,7.28
2022-12-20T17:57:49.376Z,7.28
2022-12-20T18:00:18.665Z,6.88
2022-12-20T18:02:46.740Z,7.07
2022-12-20T18:05:14.541Z,7.13
2022-12-20T18:07:44.631Z,6.40
2022-12-20T18:10:13.767Z,6.20
2022-12-20T18:12:41.508Z,6.43
2022-12-20T18:15:10.286Z,7.03
2022-12-20T18:17:38.783Z,6.22
2022-12-20T18:20:07.622Z,7.40
2022-12-20T18:22:35.523Z,6.85
2022-12-20T18:25:07.051Z,5.95
2022-12-20T18:27:39.251Z,6.78
2022-12-20T18:30:07.910Z,6.15
2022-12-20T18:32:35.584Z,6.00
2022-12-20T18:35:03.279Z,5.78
2022-12-20T18:37:31.294Z,7.10
2022-12-20T18:39:59.547Z,6.45
2022-12-20T18:42:27.252Z,6.80
2022-12-20T18:44:56.327Z,6.90
2022-12-20T18:47:24.096Z,7.75
2022-12-20T18:49:51.887Z,7.90
2022-12-20T18:52:19.556Z,8.30
2022-12-20T18:54:47.231Z,7.68
2022-12-20T18:57:14.978Z,7.28
2022-12-20T18:59:42.670Z,7.57
2022-12-20T19:02:12.749Z,8.52
2022-12-20T19:04:40.718Z,7.20
2022-12-20T19:07:08.517Z,7.10
2022-12-20T19:09:36.299Z,7.18
2022-12-20T19:12:05.470Z,7.60
2022-12-20T19:14:33.125Z,7.85
2022-12-20T19:17:00.844Z,7.80
2022-12-20T19:19:30.040Z,8.57
2022-12-20T19:21:57.734Z,7.30
2022-12-20T19:24:25.483Z,8.20
2022-12-20T19:26:53.458Z,9.00
2022-12-20T19:29:21.206Z,9.50
2022-12-20T19:31:48.993Z,9.50
2022-12-20T19:34:16.681Z,7.57
2022-12-20T19:36:46.763Z,7.88
2022-12-20T19:39:17.342Z,8.88
2022-12-20T19:41:55.065Z,8.60
2022-12-20T19:44:27.926Z,9.30
2022-12-20T19:46:55.926Z,9.52
2022-12-20T19:49:23.757Z,9.18
2022-12-20T19:51:52.768Z,9.15
2022-12-20T19:54:20.422Z,8.90
2022-12-20T19:56:48.137Z,8.80
2022-12-20T19:59:16.774Z,9.07
2022-12-20T20:01:45.266Z,9.93
2022-12-20T20:04:13.094Z,9.43
2022-12-20T20:06:40.813Z,8.55
2022-12-20T20:09:09.972Z,8.70
2022-12-20T20:11:37.635Z,10.23
2022-12-20T20:14:08.206Z,8.90
2022-12-20T20:16:35.952Z,8.82
2022-12-20T20:19:05.489Z,10.63
2022-12-20T20:21:35.049Z,9.00
2022-12-20T20:24:02.779Z,10.30
2022-12-20T20:26:31.898Z,9.45
2022-12-20T20:29:01.495Z,10.82
2022-12-20T20:31:29.463Z,9.40
2022-12-20T20:33:58.460Z,10.02
2022-12-20T20:36:26.433Z,10.43
2022-12-20T20:38:54.116Z,10.35
2022-12-20T20:41:22.615Z,10.57
2022-12-20T20:43:51.658Z,10.30
2022-12-20T20:46:19.517Z,11.63
2022-12-20T20:48:47.386Z,10.40
2022-12-20T20:51:15.087Z,11.63
2022-12-20T20:53:42.833Z,9.32
2022-12-20T20:56:10.863Z,11.32
2022-12-20T20:58:38.616Z,13.15
2022-12-20T21:01:09.569Z,13.07
2022-12-20T21:03:37.811Z,11.30
2022-12-20T21:08:54.066Z,11.77
2022-12-20T21:11:22.004Z,13.30
2022-12-20T21:13:50.036Z,14.10
2022-12-20T21:16:20.945Z,14.20
2022-12-20T21:18:51.484Z,12.27
2022-12-20T21:21:19.182Z,13.45
2022-12-20T21:23:48.084Z,13.52
2022-12-20T21:26:16.358Z,13.10
2022-12-20T21:28:45.467Z,13.10
2022-12-20T21:31:15.044Z,13.23
2022-12-20T21:33:45.759Z,11.93
2022-12-20T21:36:15.455Z,13.63
2022-12-20T21:38:43.512Z,13.75
2022-12-20T21:41:12.416Z,12.35
2022-12-20T21:43:40.364Z,12.05
2022-12-20T21:46:11.311Z,13.27
2022-12-20T21:48:39.680Z,11.02
2022-12-20T21:51:10.170Z,13.38
2022-12-20T21:53:42.329Z,13.55
2022-12-20T21:56:09.974Z,11.63
2022-12-20T21:58:38.418Z,12.75
2022-12-20T22:01:06.535Z,12.73
2022-12-20T22:03:34.415Z,14.48
2022-12-20T22:06:02.125Z,14.75
2022-12-20T22:08:32.144Z,14.95
2022-12-20T22:11:00.304Z,14.88
2022-12-20T22:13:28.270Z,14.98
2022-12-20T22:15:56.347Z,13.05
2022-12-20T22:18:24.157Z,15.93
2022-12-20T22:20:51.973Z,16.13
2022-12-20T22:23:19.674Z,17.33
2022-12-20T22:25:48.709Z,17.88
2022-12-20T22:28:16.632Z,17.10
2022-12-20T22:30:44.500Z,15.25
2022-12-20T22:33:12.136Z,15.73
2022-12-20T22:35:39.845Z,15.10
2022-12-20T22:38:08.025Z,16.38
2022-12-20T22:40:35.716Z,14.30
2022-12-20T22:43:04.757Z,14.07
2022-12-20T22:45:32.635Z,13.05
2022-12-20T22:48:00.470Z,12.73
2022-12-20T22:50:28.125Z,13.35
2022-12-20T22:52:55.866Z,11.80
2022-12-20T22:55:23.519Z,10.32
2022-12-20T22:57:51.264Z,11.38
2022-12-20T23:00:20.524Z,10.23
2022-12-20T23:02:48.481Z,10.43
2022-12-20T23:05:16.425Z,10.10
2022-12-20T23:07:44.141Z,10.65
2022-12-20T23:10:32.540Z,10.13
2022-12-20T23:13:17.755Z,8.68
2022-12-20T23:15:49.193Z,8.50
2022-12-20T23:18:17.010Z,8.05
2022-12-20T23:21:07.515Z,8.57
2022-12-20T23:23:35.164Z,8.80
2022-12-20T23:26:09.362Z,8.23
2022-12-20T23:28:37.068Z,8.77
2022-12-20T23:31:06.295Z,9.45
2022-12-20T23:33:34.123Z,8.07
2022-12-20T23:36:02.151Z,8.30
2022-12-20T23:38:32.452Z,9.02
2022-12-20T23:41:00.107Z,11.00
2022-12-20T23:43:29.866Z,10.90
2022-12-20T23:46:02.932Z,9.05
2022-12-20T23:48:32.238Z,10.30
2022-12-20T23:51:00.272Z,10.93
2022-12-20T23:53:28.039Z,10.30
2022-12-20T23:55:59.731Z,10.88
2022-12-20T23:58:27.481Z,10.40
